createdAt,value
2024-03-28T00:00:34.585Z,19.40
2024-03-28T00:03:39.867Z,20.30
2024-03-28T00:06:45.387Z,27.70
2024-03-28T00:09:50.952Z,24.50
2024-03-28T00:12:56.305Z,27.80
2024-03-28T00:16:03.527Z,25.20
2024-03-28T00:19:08.797Z,24.10
2024-03-28T00:22:14.250Z,27.30
2024-03-28T00:25:19.620Z,22.30
2024-03-28T00:28:26.151Z,33.90
2024-03-28T00:31:31.494Z,28.30
2024-03-28T00:34:37.226Z,31.80
2024-03-28T00:37:42.501Z,30.80
2024-03-28T00:40:51.675Z,28.50
2024-03-28T00:43:57.218Z,29.30
2024-03-28T00:47:03.601Z,26.90
2024-03-28T00:50:10.119Z,27.10
2024-03-28T00:53:15.883Z,21.50
2024-03-28T00:56:21.472Z,34.50
2024-03-28T00:59:27.946Z,32.30
2024-03-28T01:02:33.296Z,31.40
2024-03-28T01:05:38.686Z,24.30
2024-03-28T01:08:44.090Z,29.30
2024-03-28T01:11:49.640Z,26.10
2024-03-28T01:14:55.575Z,27.90
2024-03-28T01:18:01.559Z,23.20
2024-03-28T01:21:08.103Z,27.00
2024-03-28T01:24:14.213Z,35.10
2024-03-28T01:27:19.564Z,28.20
2024-03-28T01:30:25.086Z,24.80
2024-03-28T01:33:30.421Z,28.50
2024-03-28T01:36:36.373Z,29.70
2024-03-28T01:39:42.433Z,26.00
2024-03-28T01:42:48.509Z,25.30
2024-03-28T01:45:53.931Z,27.10
2024-03-28T01:48:59.313Z,29.70
2024-03-28T01:52:06.164Z,21.80
2024-03-28T01:55:12.198Z,27.00
2024-03-28T01:58:17.797Z,25.70
2024-03-28T02:01:23.504Z,22.10
2024-03-28T02:04:28.884Z,23.80
2024-03-28T02:07:34.736Z,22.50
2024-03-28T02:10:40.462Z,21.20
2024-03-28T02:13:46.055Z,19.60
2024-03-28T02:16:51.780Z,21.60
2024-03-28T02:19:57.286Z,19.40
2024-03-28T02:23:02.876Z,18.90
2024-03-28T02:26:08.871Z,15.60
2024-03-28T02:29:14.163Z,18.30
2024-03-28T02:32:19.665Z,24.00
2024-03-28T02:35:24.937Z,17.50
2024-03-28T02:38:30.237Z,14.50
2024-03-28T02:41:35.814Z,14.20
2024-03-28T02:44:41.129Z,12.40
2024-03-28T02:47:46.697Z,15.70
2024-03-28T02:50:52.220Z,10.50
2024-03-28T02:53:57.483Z,14.90
2024-03-28T02:57:06.264Z,9.80
2024-03-28T03:00:14.549Z,13.40
2024-03-28T03:03:20.486Z,15.50
2024-03-28T03:06:26.676Z,10.60
2024-03-28T03:09:32.059Z,13.80
2024-03-28T03:12:37.421Z,15.90
2024-03-28T03:15:42.808Z,11.20
2024-03-28T03:18:50.789Z,13.00
2024-03-28T03:21:56.396Z,16.10
2024-03-28T03:25:11.633Z,10.00
2024-03-28T03:28:34.890Z,14.20
2024-03-28T03:31:57.734Z,13.70
2024-03-28T03:35:03.518Z,10.30
2024-03-28T03:38:08.766Z,11.60
2024-03-28T03:41:14.756Z,14.00
2024-03-28T03:44:20.179Z,11.20
2024-03-28T03:47:25.834Z,9.30
2024-03-28T03:50:31.308Z,17.30
2024-03-28T03:53:36.600Z,12.40
2024-03-28T03:56:41.867Z,9.30
2024-03-28T03:59:47.731Z,6.60
2024-03-28T04:02:53.218Z,4.00
2024-03-28T04:06:03.180Z,4.20
2024-03-28T04:09:09.804Z,4.60
2024-03-28T04:12:15.085Z,4.30
2024-03-28T04:15:20.308Z,3.60
2024-03-28T04:18:25.857Z,4.30
2024-03-28T04:21:31.780Z,5.00
2024-03-28T04:24:37.060Z,2.80
2024-03-28T04:27:42.282Z,2.40
2024-03-28T04:30:47.671Z,3.50
2024-03-28T04:33:54.525Z,3.60
2024-03-28T04:37:00.702Z,2.80
2024-03-28T04:40:10.290Z,3.50
2024-03-28T04:43:15.924Z,3.80
2024-03-28T04:46:21.756Z,3.60
2024-03-28T04:49:27.433Z,3.90
2024-03-28T04:52:32.686Z,3.50
2024-03-28T04:55:38.187Z,3.10
2024-03-28T04:58:43.464Z,4.10
2024-03-28T05:01:48.926Z,2.50
2024-03-28T05:04:54.484Z,3.20
2024-03-28T05:08:00.100Z,2.60
2024-03-28T05:11:05.873Z,4.80
2024-03-28T05:14:12.322Z,2.60
2024-03-28T05:17:18.766Z,3.90
2024-03-28T05:20:24.233Z,2.60
2024-03-28T05:23:29.549Z,3.70
2024-03-28T05:26:36.374Z,4.00
2024-03-28T05:29:43.456Z,2.50
2024-03-28T05:32:48.733Z,3.30
2024-03-28T05:35:54.153Z,3.60
2024-03-28T05:38:59.868Z,4.40
2024-03-28T05:42:06.117Z,4.90
2024-03-28T05:45:13.933Z,3.60
2024-03-28T05:48:19.438Z,3.20
2024-03-28T05:51:25.128Z,3.70
2024-03-28T05:54:30.458Z,3.40
2024-03-28T05:57:35.836Z,3.70
2024-03-28T06:00:41.429Z,4.00
2024-03-28T06:03:47.192Z,2.90
2024-03-28T06:06:52.531Z,9.60
2024-03-28T06:09:57.984Z,4.20
2024-03-28T06:13:05.669Z,8.10
2024-03-28T06:16:11.127Z,4.70
2024-03-28T06:19:16.567Z,4.00
2024-03-28T06:22:25.315Z,3.50
2024-03-28T06:25:32.361Z,4.60
2024-03-28T06:28:37.981Z,4.80
2024-03-28T06:31:45.031Z,19.20
2024-03-28T06:34:50.561Z,7.80
2024-03-28T06:37:55.821Z,5.10
2024-03-28T06:41:04.666Z,4.50
2024-03-28T06:44:10.001Z,3.90
2024-03-28T06:47:15.853Z,4.30
2024-03-28T06:50:22.187Z,4.30
2024-03-28T06:53:28.077Z,6.10
2024-03-28T06:56:34.031Z,4.60
2024-03-28T06:59:39.493Z,3.70
2024-03-28T07:02:44.945Z,5.50
2024-03-28T07:05:50.368Z,4.80
2024-03-28T07:08:56.142Z,5.50
2024-03-28T07:12:01.720Z,6.70
2024-03-28T07:15:10.789Z,5.60
2024-03-28T07:18:16.107Z,4.60
2024-03-28T07:21:21.980Z,6.30
2024-03-28T07:24:27.697Z,8.90
2024-03-28T07:27:34.547Z,6.00
2024-03-28T07:30:40.410Z,4.60
2024-03-28T07:33:46.567Z,4.50
2024-03-28T07:36:52.592Z,6.40
2024-03-28T07:39:58.091Z,6.00
2024-03-28T07:43:03.352Z,5.10
2024-03-28T07:46:09.075Z,6.40
2024-03-28T07:49:14.718Z,3.10
2024-03-28T07:52:20.171Z,6.50
2024-03-28T07:55:25.670Z,5.40
2024-03-28T07:58:32.559Z,5.20
2024-03-28T08:01:38.143Z,6.70
2024-03-28T08:04:44.023Z,6.60
2024-03-28T08:07:50.099Z,5.40
2024-03-28T08:10:55.431Z,5.60
2024-03-28T08:14:00.839Z,2.60
2024-03-28T08:17:09.873Z,5.60
2024-03-28T08:20:17.177Z,4.50
2024-03-28T08:23:23.745Z,3.60
2024-03-28T08:26:29.399Z,5.10
2024-03-28T08:29:35.174Z,6.50
2024-03-28T08:32:40.667Z,3.90
2024-03-28T08:35:46.470Z,4.30
2024-03-28T08:38:52.453Z,5.80
2024-03-28T08:41:58.182Z,4.90
2024-03-28T08:45:03.501Z,4.80
2024-03-28T08:48:10.054Z,4.20
2024-03-28T08:51:18.130Z,9.10
2024-03-28T08:54:25.117Z,4.50
2024-03-28T08:57:30.306Z,5.00
2024-03-28T09:00:35.909Z,5.30
2024-03-28T09:03:41.438Z,4.90
2024-03-28T09:06:47.232Z,4.60
2024-03-28T09:09:53.390Z,5.10
2024-03-28T09:12:59.528Z,3.90
2024-03-28T09:16:05.263Z,1.80
2024-03-28T09:19:10.909Z,3.70
2024-03-28T09:22:16.515Z,3.60
2024-03-28T09:25:22.167Z,5.00
2024-03-28T09:28:28.888Z,5.30
2024-03-28T09:31:34.357Z,4.40
2024-03-28T09:34:39.821Z,3.90
2024-03-28T09:37:45.782Z,4.80
2024-03-28T09:40:56.302Z,4.00
2024-03-28T09:44:05.244Z,3.70
2024-03-28T09:47:12.139Z,7.10
2024-03-28T09:50:20.445Z,2.60
2024-03-28T09:53:27.517Z,5.50
2024-03-28T09:56:32.948Z,4.10
2024-03-28T09:59:38.417Z,4.60
2024-03-28T10:02:53.000Z,4.30
2024-03-28T10:06:00.223Z,4.40
2024-03-28T10:09:08.651Z,2.40
2024-03-28T10:12:15.741Z,5.30
2024-03-28T10:15:21.288Z,8.20
2024-03-28T10:18:27.590Z,3.60
2024-03-28T10:21:33.350Z,3.90
2024-03-28T10:24:39.564Z,4.00
2024-03-28T10:27:44.953Z,5.30
2024-03-28T10:30:54.389Z,5.90
2024-03-28T10:34:00.086Z,3.50
2024-03-28T10:37:09.698Z,4.20
2024-03-28T10:40:15.093Z,4.70
2024-03-28T10:43:23.229Z,5.40
2024-03-28T10:46:31.583Z,4.20
2024-03-28T10:49:48.635Z,3.30
2024-03-28T10:52:56.125Z,6.10
2024-03-28T10:56:07.216Z,4.10
2024-03-28T10:59:14.441Z,3.50
2024-03-28T11:02:21.200Z,4.00
2024-03-28T11:05:30.547Z,4.90
2024-03-28T11:08:36.107Z,3.50
2024-03-28T11:11:42.126Z,4.50
2024-03-28T11:14:57.475Z,3.90
2024-03-28T11:18:04.738Z,3.50
2024-03-28T11:21:10.401Z,2.40
2024-03-28T11:24:24.060Z,4.80
2024-03-28T11:27:29.549Z,5.00
2024-03-28T11:30:35.538Z,5.40
2024-03-28T11:33:41.361Z,4.30
2024-03-28T11:36:46.804Z,2.90
2024-03-28T11:39:52.846Z,5.00
2024-03-28T11:43:15.170Z,3.60
2024-03-28T11:46:20.571Z,4.00
2024-03-28T11:49:25.914Z,4.30
2024-03-28T11:52:32.218Z,4.40
2024-03-28T11:55:41.653Z,3.00
2024-03-28T11:58:48.325Z,3.40
2024-03-28T12:02:04.882Z,4.30
2024-03-28T12:05:11.377Z,4.30
2024-03-28T12:08:17.349Z,4.50
2024-03-28T12:11:23.805Z,4.80
2024-03-28T12:14:29.070Z,6.60
2024-03-28T12:17:34.326Z,4.70
2024-03-28T12:20:41.246Z,3.40
2024-03-28T12:23:47.005Z,3.30
2024-03-28T12:26:52.415Z,6.80
2024-03-28T12:30:08.353Z,3.60
2024-03-28T12:33:17.739Z,3.90
2024-03-28T12:36:29.285Z,7.90
2024-03-28T12:39:38.914Z,5.30
2024-03-28T12:42:49.452Z,7.60
2024-03-28T12:46:05.474Z,2.30
2024-03-28T12:49:10.767Z,6.30
2024-03-28T12:52:23.493Z,7.00
2024-03-28T12:55:29.639Z,6.30
2024-03-28T12:58:35.455Z,4.40
2024-03-28T13:01:41.158Z,3.30
2024-03-28T13:04:46.700Z,2.90
2024-03-28T13:07:52.188Z,2.10
2024-03-28T13:10:57.688Z,2.90
2024-03-28T13:14:03.513Z,3.60
2024-03-28T13:17:08.952Z,3.30
2024-03-28T13:20:17.764Z,3.20
2024-03-28T13:23:23.799Z,5.60
2024-03-28T13:29:40.091Z,4.80
2024-03-28T13:32:45.752Z,5.10
2024-03-28T13:35:51.965Z,4.20
2024-03-28T13:38:57.456Z,4.80
2024-03-28T13:42:03.328Z,5.30
2024-03-28T13:45:09.784Z,5.70
2024-03-28T13:48:23.067Z,6.00
2024-03-28T13:51:28.765Z,3.70
2024-03-28T13:54:34.753Z,3.70
2024-03-28T13:57:40.638Z,4.10
2024-03-28T14:00:46.228Z,3.60
2024-03-28T14:03:52.099Z,3.30
2024-03-28T14:06:57.829Z,6.10
2024-03-28T14:10:05.814Z,4.80
2024-03-28T14:13:11.366Z,5.10
2024-03-28T14:16:16.957Z,4.70
2024-03-28T14:19:22.459Z,3.10
2024-03-28T14:22:28.028Z,5.10
2024-03-28T14:25:33.663Z,6.50
2024-03-28T14:28:39.468Z,5.20
2024-03-28T14:31:45.615Z,2.30
2024-03-28T14:34:50.825Z,4.20
2024-03-28T14:37:56.495Z,3.40
2024-03-28T14:41:05.514Z,3.60
2024-03-28T14:44:10.979Z,3.20
2024-03-28T14:47:19.597Z,3.40
2024-03-28T14:50:24.937Z,3.50
2024-03-28T14:53:31.846Z,2.50
2024-03-28T14:56:37.317Z,3.40
2024-03-28T14:59:44.996Z,3.00
2024-03-28T15:02:50.490Z,3.40
2024-03-28T15:05:56.233Z,3.10
2024-03-28T15:09:02.900Z,3.90
2024-03-28T15:12:09.115Z,6.80
2024-03-28T15:15:14.784Z,4.70
2024-03-28T15:18:20.221Z,5.60
2024-03-28T15:21:26.269Z,4.00
2024-03-28T15:24:38.120Z,3.90
2024-03-28T15:27:43.624Z,3.40
2024-03-28T15:30:49.026Z,2.80
2024-03-28T15:33:54.681Z,2.90
2024-03-28T15:37:00.683Z,3.60
2024-03-28T15:40:07.658Z,4.10
2024-03-28T15:43:13.006Z,2.80
2024-03-28T15:46:18.517Z,1.80
2024-03-28T15:49:23.989Z,3.90
2024-03-28T15:52:31.253Z,6.00
2024-03-28T15:55:39.908Z,4.30
2024-03-28T15:58:46.303Z,4.40
2024-03-28T16:01:51.595Z,5.00
2024-03-28T16:04:58.088Z,5.80
2024-03-28T16:08:08.379Z,5.40
2024-03-28T16:11:14.462Z,3.20
2024-03-28T16:14:19.926Z,3.50
2024-03-28T16:17:25.452Z,4.00
2024-03-28T16:20:30.772Z,4.40
2024-03-28T16:23:36.155Z,3.70
2024-03-28T16:26:43.063Z,5.20
2024-03-28T16:29:50.018Z,2.90
2024-03-28T16:32:55.702Z,4.60
2024-03-28T16:36:01.178Z,4.70
2024-03-28T16:39:07.659Z,4.30
2024-03-28T16:42:13.057Z,3.00
2024-03-28T16:45:18.636Z,4.50
2024-03-28T16:48:24.060Z,4.00
2024-03-28T16:51:29.463Z,2.60
2024-03-28T16:54:35.378Z,3.30
2024-03-28T16:57:40.999Z,4.40
2024-03-28T17:00:46.525Z,4.80
2024-03-28T17:03:54.727Z,3.70
2024-03-28T17:07:00.034Z,5.80
2024-03-28T17:10:08.402Z,4.40
2024-03-28T17:13:14.154Z,5.40
2024-03-28T17:16:20.101Z,3.30
2024-03-28T17:19:25.564Z,4.90
2024-03-28T17:22:31.453Z,4.40
2024-03-28T17:25:39.871Z,4.00
2024-03-28T17:28:45.454Z,3.40
2024-03-28T17:31:50.973Z,5.10
2024-03-28T17:34:56.355Z,4.50
2024-03-28T17:38:01.776Z,4.20
2024-03-28T17:41:08.405Z,4.80
2024-03-28T17:44:13.682Z,5.70
2024-03-28T17:47:19.410Z,5.50
2024-03-28T17:50:25.419Z,3.50
2024-03-28T17:53:30.721Z,5.70
2024-03-28T17:56:36.466Z,4.80
2024-03-28T17:59:42.166Z,4.40
2024-03-28T18:02:47.390Z,4.10
2024-03-28T18:05:52.783Z,4.60
2024-03-28T18:08:58.435Z,4.70
2024-03-28T18:12:04.260Z,5.90
2024-03-28T18:15:10.694Z,6.20
2024-03-28T18:18:15.883Z,6.50
2024-03-28T18:21:21.226Z,7.80
2024-03-28T18:24:30.033Z,6.00
2024-03-28T18:27:35.752Z,4.90
2024-03-28T18:30:41.070Z,5.20
2024-03-28T18:33:46.408Z,6.10
2024-03-28T18:36:51.653Z,4.80
2024-03-28T18:39:57.536Z,6.50
2024-03-28T18:43:04.274Z,6.00
2024-03-28T18:46:09.730Z,4.40
2024-03-28T18:49:15.517Z,4.80
2024-03-28T18:52:20.831Z,5.50
2024-03-28T18:55:27.886Z,5.80
2024-03-28T18:58:33.556Z,6.70
2024-03-28T19:01:38.908Z,5.30
2024-03-28T19:04:44.267Z,7.20
2024-03-28T19:07:50.148Z,5.60
2024-03-28T19:10:56.105Z,5.80
2024-03-28T19:14:05.116Z,6.90
2024-03-28T19:17:10.471Z,6.40
2024-03-28T19:20:16.104Z,6.40
2024-03-28T19:23:22.272Z,7.00
2024-03-28T19:26:27.727Z,7.00
2024-03-28T19:29:34.876Z,7.90
2024-03-28T19:32:40.291Z,7.90
2024-03-28T19:35:52.374Z,7.10
2024-03-28T19:38:57.877Z,5.90
2024-03-28T19:42:03.240Z,5.80
2024-03-28T19:45:11.102Z,9.20
2024-03-28T19:48:17.183Z,7.70
2024-03-28T19:51:22.503Z,10.10
2024-03-28T19:54:33.300Z,7.90
2024-03-28T19:57:44.067Z,8.10
2024-03-28T20:00:49.895Z,8.10
2024-03-28T20:03:55.207Z,7.70
2024-03-28T20:07:03.969Z,6.60
2024-03-28T20:10:13.418Z,6.20
2024-03-28T20:13:18.899Z,4.90
2024-03-28T20:16:24.414Z,6.60
2024-03-28T20:19:30.021Z,3.90
2024-03-28T20:22:35.387Z,7.30
2024-03-28T20:25:40.712Z,4.80
2024-03-28T20:28:49.697Z,7.70
2024-03-28T20:31:56.482Z,7.90
2024-03-28T20:35:02.833Z,5.90
2024-03-28T20:38:11.613Z,7.70
2024-03-28T20:41:17.328Z,5.80
2024-03-28T20:44:26.059Z,4.30
2024-03-28T20:47:31.847Z,5.30
2024-03-28T20:50:40.191Z,5.20
2024-03-28T20:53:46.155Z,4.00
2024-03-28T20:56:53.734Z,3.20
2024-03-28T20:59:59.631Z,3.50
2024-03-28T21:03:05.629Z,6.70
2024-03-28T21:06:31.942Z,4.70
2024-03-28T21:09:55.685Z,2.70
2024-03-28T21:13:01.496Z,3.30
2024-03-28T21:16:07.357Z,2.80
2024-03-28T21:19:13.176Z,2.70
2024-03-28T21:22:18.671Z,3.70
2024-03-28T21:25:24.133Z,3.80
2024-03-28T21:28:30.949Z,1.70
2024-03-28T21:31:36.288Z,3.80
2024-03-28T21:34:42.264Z,3.90
2024-03-28T21:37:47.998Z,3.50
2024-03-28T21:40:57.373Z,3.40
2024-03-28T21:44:03.510Z,3.30
2024-03-28T21:47:09.168Z,4.80
2024-03-28T21:50:14.577Z,2.70
2024-03-28T21:53:20.577Z,3.50
2024-03-28T21:56:25.887Z,3.70
2024-03-28T21:59:31.341Z,2.10
2024-03-28T22:02:36.572Z,3.20
2024-03-28T22:05:42.690Z,2.80
2024-03-28T22:08:48.399Z,3.00
2024-03-28T22:11:56.407Z,3.40
2024-03-28T22:15:03.471Z,4.00
2024-03-28T22:18:10.374Z,4.20
2024-03-28T22:21:15.903Z,4.90
2024-03-28T22:24:21.477Z,5.80
2024-03-28T22:27:26.769Z,4.70
2024-03-28T22:30:33.211Z,4.70
2024-03-28T22:33:40.466Z,4.70
2024-03-28T22:36:45.866Z,4.40
2024-03-28T22:39:51.629Z,6.60
2024-03-28T22:42:56.874Z,4.70
2024-03-28T22:46:03.029Z,5.00
2024-03-28T22:49:08.390Z,3.60
2024-03-28T22:52:13.733Z,4.50
2024-03-28T22:55:19.362Z,3.90
2024-03-28T22:58:24.923Z,4.00
2024-03-28T23:01:30.143Z,3.00
2024-03-28T23:04:35.402Z,3.60
2024-03-28T23:07:42.390Z,4.00
2024-03-28T23:10:53.664Z,3.80
2024-03-28T23:13:59.035Z,3.60
2024-03-28T23:17:04.772Z,4.30
2024-03-28T23:20:11.720Z,3.60
2024-03-28T23:23:17.267Z,5.20
2024-03-28T23:26:23.161Z,6.20
2024-03-28T23:29:30.224Z,4.10
2024-03-28T23:32:35.686Z,4.10
2024-03-28T23:35:40.993Z,3.70
2024-03-28T23:38:48.753Z,6.70
2024-03-28T23:41:56.079Z,6.00
2024-03-28T23:45:01.793Z,5.40
2024-03-28T23:48:08.494Z,4.10
2024-03-28T23:51:15.515Z,3.30
2024-03-28T23:54:21.109Z,3.60
2024-03-28T23:57:26.432Z,4.00
